Time;durP1;ratioP1;P1;durP2;ratioP2;P2;SDS_P1;SDS_P2;PMS_P1;PMS_P2;Temp;Humidity;BMP_temperature;BMP_pressure;BME280_temperature;BME280_humidity;BME280_pressure;Samples;Min_cycle;Max_cycle;Signal;HPM_P1;HPM_P2
2023/05/02 00:02:07;;;;;;;3.83;2.80;;;;;;;11.68;62.94;99864.91;4940424;29;20031;-88
2023/05/02 00:04:33;;;;;;;6.43;2.75;;;;;;;11.71;62.97;99875.16;4924251;29;20039;-87
2023/05/02 00:06:58;;;;;;;5.65;2.83;;;;;;;11.59;63.57;99869.16;4924671;29;20054;-87
2023/05/02 00:09:24;;;;;;;4.00;2.85;;;;;;;11.53;63.36;99870.22;4924565;29;20035;-87
2023/05/02 00:11:50;;;;;;;4.35;2.80;;;;;;;11.59;63.06;99877.25;4924938;29;20042;-88
2023/05/02 00:14:15;;;;;;;6.65;3.00;;;;;;;11.52;63.27;99865.91;4940255;29;20102;-88
2023/05/02 00:16:41;;;;;;;7.05;2.88;;;;;;;11.52;63.32;99872.09;4941196;29;20034;-89
2023/05/02 00:19:07;;;;;;;4.50;2.90;;;;;;;11.58;63.30;99874.81;4932231;29;20425;-88
2023/05/02 00:21:32;;;;;;;6.72;3.72;;;;;;;11.53;63.65;99883.69;4924615;29;20135;-88
2023/05/02 00:23:58;;;;;;;6.60;3.15;;;;;;;11.50;63.51;99870.75;4923357;29;20177;-88
2023/05/02 00:26:24;;;;;;;7.30;3.53;;;;;;;11.69;63.21;99884.59;4923310;29;20043;-88
2023/05/02 00:28:49;;;;;;;4.80;3.28;;;;;;;11.69;62.98;99885.41;4922228;29;20561;-88
2023/05/02 00:31:15;;;;;;;5.25;2.97;;;;;;;11.67;62.38;99876.75;4924874;29;20438;-89
2023/05/02 00:33:41;;;;;;;5.15;3.17;;;;;;;11.58;63.37;99886.44;4924429;29;20486;-88
2023/05/02 00:36:13;;;;;;;4.68;3.22;;;;;;;11.52;63.61;99890.97;4930558;29;20119;-88
2023/05/02 00:38:39;;;;;;;8.27;3.30;;;;;;;11.55;63.20;99881.56;4924246;29;20046;-88
2023/05/02 00:41:05;;;;;;;4.85;2.67;;;;;;;11.48;63.74;99873.69;4917296;29;20075;-89
2023/05/02 00:43:30;;;;;;;8.60;2.90;;;;;;;11.32;64.55;99872.81;4924638;29;20023;-89
2023/05/02 00:45:56;;;;;;;6.88;2.95;;;;;;;11.33;64.51;99879.03;4924119;29;20501;-89
2023/05/02 00:48:22;;;;;;;4.55;3.00;;;;;;;11.50;63.96;99885.03;4925214;29;20031;-89
2023/05/02 00:50:47;;;;;;;5.13;3.10;;;;;;;11.38;64.54;99883.63;4923985;29;20027;-89
2023/05/02 00:53:13;;;;;;;6.10;2.75;;;;;;;11.37;64.15;99882.00;4924204;28;20097;-89
2023/05/02 00:55:38;;;;;;;4.70;3.25;;;;;;;11.37;64.14;99888.22;4927904;29;20106;-87
2023/05/02 00:58:15;;;;;;;4.45;2.80;;;;;;;11.31;64.28;99884.66;4928338;29;20070;-88
2023/05/02 01:00:52;;;;;;;6.20;4.90;;;;;;;11.28;64.45;99890.56;4928949;29;20080;-88
2023/05/02 01:03:41;;;;;;;4.47;3.50;;;;;;;11.20;64.83;99891.06;4943991;29;20079;-86
2023/05/02 01:06:41;;;;;;;5.65;3.17;;;;;;;11.27;64.27;99886.25;4923496;29;20035;-89
2023/05/02 01:09:28;;;;;;;5.15;2.80;;;;;;;11.34;63.89;99880.63;4911080;29;20040;-88
2023/05/02 01:12:03;;;;;;;3.60;2.35;;;;;;;11.16;64.95;99879.16;4944053;29;20039;-89
2023/05/02 01:14:32;;;;;;;3.75;2.58;;;;;;;11.18;64.44;99870.81;4944008;29;20493;-87
2023/05/02 01:16:58;;;;;;;4.47;2.40;;;;;;;11.12;64.66;99884.28;4927531;29;20106;-86
2023/05/02 01:19:35;;;;;;;6.57;2.67;;;;;;;11.07;64.42;99869.94;4927168;29;20027;-86
2023/05/02 01:22:06;;;;;;;3.67;2.42;;;;;;;11.21;63.70;99871.13;4942553;29;20047;-85
2023/05/02 01:24:42;;;;;;;6.30;2.67;;;;;;;11.12;64.12;99868.13;4927243;29;20485;-85
2023/05/02 01:27:45;;;;;;;4.00;2.50;;;;;;;11.10;64.32;99891.81;4924978;29;20610;-86
2023/05/02 01:30:10;;;;;;;4.60;2.30;;;;;;;11.06;64.26;99889.88;4953197;28;20082;-86
2023/05/02 01:32:36;;;;;;;3.40;2.40;;;;;;;10.95;64.31;99872.03;4926323;29;20129;-86
2023/05/02 01:35:02;;;;;;;7.20;2.42;;;;;;;11.08;63.46;99888.56;4942313;29;20063;-87
2023/05/02 01:37:27;;;;;;;4.82;2.60;;;;;;;11.12;63.59;99881.59;4943087;29;20031;-85
2023/05/02 01:39:53;;;;;;;4.10;2.60;;;;;;;11.12;63.74;99875.38;4926781;29;20520;-85
2023/05/02 01:42:19;;;;;;;5.90;2.80;;;;;;;11.21;63.67;99889.19;4926431;29;20035;-84
2023/05/02 01:44:44;;;;;;;4.93;2.72;;;;;;;11.13;63.42;99880.50;4926296;29;20047;-85
2023/05/02 01:47:10;;;;;;;6.60;2.92;;;;;;;11.11;63.44;99871.06;4941550;29;20050;-86
2023/05/02 01:49:35;;;;;;;5.05;3.00;;;;;;;11.09;63.46;99874.00;4941528;29;20040;-86
2023/05/02 01:52:06;;;;;;;3.30;2.50;;;;;;;11.07;63.57;99894.22;4925967;29;20039;-85
2023/05/02 01:54:32;;;;;;;4.07;3.07;;;;;;;10.91;63.61;99886.03;4941779;29;20051;-84
2023/05/02 01:56:58;;;;;;;4.55;2.92;;;;;;;11.00;63.08;99891.75;4928018;29;20073;-84
2023/05/02 01:59:23;;;;;;;9.40;3.08;;;;;;;10.87;63.38;99884.91;4935550;29;20544;-85
2023/05/02 02:01:50;;;;;;;6.68;3.10;;;;;;;10.88;63.46;99894.59;4928468;29;20490;-85
2023/05/02 02:04:15;;;;;;;7.22;3.05;;;;;;;10.89;64.37;99895.41;4940773;29;20482;-85
2023/05/02 02:06:44;;;;;;;3.55;2.38;;;;;;;10.84;64.14;99884.59;4917719;29;20047;-85
2023/05/02 02:09:10;;;;;;;4.00;2.75;;;;;;;10.87;64.05;99900.25;4941055;29;20584;-86
2023/05/02 02:11:44;;;;;;;4.53;2.78;;;;;;;10.96;63.74;99896.03;4924865;29;20047;-86
2023/05/02 02:14:18;;;;;;;6.55;3.05;;;;;;;10.86;63.98;99882.47;4939432;29;20049;-86
2023/05/02 02:16:43;;;;;;;5.47;2.80;;;;;;;10.81;64.01;99896.72;4925812;29;20126;-86
2023/05/02 02:19:09;;;;;;;6.13;2.70;;;;;;;10.72;63.95;99890.97;4925993;29;20043;-86
2023/05/02 02:21:37;;;;;;;6.43;2.70;;;;;;;10.79;63.95;99882.69;4925588;29;20134;-86
2023/05/02 02:24:03;;;;;;;7.57;2.58;;;;;;;10.69;64.65;99891.50;4926665;29;20093;-87
2023/05/02 02:26:28;;;;;;;5.10;2.92;;;;;;;10.62;64.98;99892.75;4942654;29;20038;-87
2023/05/02 02:28:54;;;;;;;6.15;2.70;;;;;;;10.40;65.77;99898.22;4926327;29;20122;-86
2023/05/02 02:31:20;;;;;;;4.90;3.05;;;;;;;10.31;65.99;99896.00;4926129;29;20039;-86
2023/05/02 02:33:45;;;;;;;8.77;3.20;;;;;;;10.46;65.59;99897.22;4926619;29;20485;-87
2023/05/02 02:36:17;;;;;;;3.72;2.20;;;;;;;10.43;65.42;99890.44;4926277;29;20121;-87
2023/05/02 02:39:04;;;;;;;4.30;2.40;;;;;;;10.43;65.81;99901.22;4930077;29;20523;-86
2023/05/02 02:41:37;;;;;;;6.18;2.63;;;;;;;10.44;65.95;99899.34;4925416;28;20035;-88
2023/05/02 02:44:21;;;;;;;9.88;3.03;;;;;;;10.16;66.85;99906.53;4924857;29;20059;-85
2023/05/02 02:47:00;;;;;;;5.00;2.78;;;;;;;10.14;67.04;99903.28;4941765;29;20050;-87
2023/05/02 02:49:46;;;;;;;8.15;3.17;;;;;;;10.09;66.73;99901.38;4925704;29;20046;-87
2023/05/02 02:52:29;;;;;;;7.18;3.83;;;;;;;10.04;66.97;99903.19;4925108;29;20522;-87
2023/05/02 02:55:01;;;;;;;6.18;2.88;;;;;;;10.09;66.81;99903.25;4926461;29;20055;-87
2023/05/02 02:58:11;;;;;;;5.28;2.83;;;;;;;10.10;67.03;99915.63;4941353;29;20035;-87
2023/05/02 03:00:37;;;;;;;4.38;2.83;;;;;;;9.90;67.09;99910.84;4941011;29;20111;-87
2023/05/02 03:03:02;;;;;;;9.20;2.83;;;;;;;9.77;67.87;99912.00;4924705;29;20409;-87
2023/05/02 03:05:28;;;;;;;11.65;3.72;;;;;;;9.71;67.64;99910.31;4925967;29;20497;-86
2023/05/02 03:07:53;;;;;;;6.15;3.45;;;;;;;9.82;67.79;99919.34;4924788;29;20038;-87
2023/05/02 03:10:21;;;;;;;5.15;3.53;;;;;;;9.75;68.08;99910.63;4925284;29;20085;-87
2023/05/02 03:12:46;;;;;;;5.40;3.17;;;;;;;9.82;67.89;99912.09;4925069;29;20089;-87
2023/05/02 03:15:46;;;;;;;10.65;3.65;;;;;;;9.86;67.95;99926.66;4925791;29;20039;-87
2023/05/02 03:18:12;;;;;;;13.27;3.60;;;;;;;9.76;67.75;99914.97;4956116;28;20124;-87
2023/05/02 03:20:37;;;;;;;11.68;3.60;;;;;;;9.78;67.48;99915.53;4924570;29;20465;-87
2023/05/02 03:23:02;;;;;;;8.73;3.75;;;;;;;9.73;67.95;99910.88;4925326;29;20106;-87
2023/05/02 03:25:28;;;;;;;10.38;3.58;;;;;;;9.71;68.19;99916.53;4925127;29;20038;-87
2023/05/02 03:27:56;;;;;;;6.18;3.55;;;;;;;9.83;67.63;99908.31;4924986;29;20039;-87
2023/05/02 03:30:21;;;;;;;7.28;3.55;;;;;;;9.86;67.22;99912.41;4924496;29;20118;-86
2023/05/02 03:32:47;;;;;;;6.63;3.40;;;;;;;9.76;67.80;99921.16;4924651;29;20074;-87
2023/05/02 03:35:12;;;;;;;11.10;4.20;;;;;;;9.75;68.46;99924.88;4924522;29;20094;-86
2023/05/02 03:37:38;;;;;;;10.05;4.05;;;;;;;9.77;68.24;99928.13;4924856;29;20058;-88
2023/05/02 03:40:04;;;;;;;7.97;4.45;;;;;;;9.85;67.55;99925.00;4927103;29;20035;-86
2023/05/02 03:42:29;;;;;;;9.65;4.57;;;;;;;9.80;67.76;99932.22;4927379;29;20040;-86
2023/05/02 03:44:55;;;;;;;14.88;4.60;;;;;;;9.77;68.06;99919.25;4930432;29;20047;-86
2023/05/02 03:47:20;;;;;;;13.63;4.00;;;;;;;9.83;67.64;99924.44;4939599;29;20031;-86
2023/05/02 03:49:46;;;;;;;11.45;4.28;;;;;;;9.91;67.81;99942.03;4924269;29;20035;-86
2023/05/02 03:52:11;;;;;;;11.88;4.68;;;;;;;9.82;67.67;99928.22;4924226;29;20046;-86
2023/05/02 03:54:37;;;;;;;10.70;4.60;;;;;;;10.01;67.47;99949.44;4923879;29;20032;-85
2023/05/02 03:57:03;;;;;;;37.22;14.60;;;;;;;9.91;67.77;99944.72;4924092;29;20039;-86
2023/05/02 03:59:33;;;;;;;10.80;5.15;;;;;;;10.09;66.83;99949.00;4924406;29;20035;-86
2023/05/02 04:01:58;;;;;;;23.33;5.47;;;;;;;10.16;67.07;99951.50;4939389;29;20607;-86
2023/05/02 04:04:23;;;;;;;26.85;7.47;;;;;;;10.23;66.88;99958.31;4940017;29;20054;-85
2023/05/02 04:06:49;;;;;;;10.77;4.20;;;;;;;10.21;66.51;99947.00;4939318;29;20090;-85
2023/05/02 04:09:14;;;;;;;10.88;4.70;;;;;;;10.34;66.70;99967.34;4939311;29;20039;-86
2023/05/02 04:11:40;;;;;;;10.43;5.00;;;;;;;10.23;66.49;99947.56;4940050;29;20544;-85
2023/05/02 04:14:06;;;;;;;10.88;4.47;;;;;;;10.27;66.31;99956.75;4932097;29;20063;-87
2023/05/02 04:16:31;;;;;;;13.00;4.55;;;;;;;10.46;65.48;99949.16;4923817;29;20462;-89
2023/05/02 04:18:57;;;;;;;13.68;5.50;;;;;;;10.63;65.41;99962.53;4922927;29;20498;-88
2023/05/02 04:21:22;;;;;;;9.20;3.45;;;;;;;10.79;60.52;99939.25;4923562;29;20031;-87
2023/05/02 04:23:48;;;;;;;6.53;3.75;;;;;;;11.02;58.50;99959.66;4924463;29;20035;-88
2023/05/02 04:26:13;;;;;;;15.98;4.78;;;;;;;11.08;62.72;99949.72;4923658;29;20031;-87
2023/05/02 04:28:39;;;;;;;18.85;4.43;;;;;;;11.26;61.87;99967.38;4924996;29;20039;-88
2023/05/02 04:31:04;;;;;;;12.05;4.97;;;;;;;11.33;61.25;99960.72;4924920;29;20046;-87
2023/05/02 04:33:30;;;;;;;6.65;3.38;;;;;;;11.56;55.95;99960.56;4924958;29;20082;-89
2023/05/02 04:35:56;;;;;;;13.85;3.92;;;;;;;11.74;55.26;99960.13;4925700;29;20032;-90
2023/05/02 04:38:21;;;;;;;8.18;4.60;;;;;;;11.82;58.06;99956.94;4924911;29;20035;-90
2023/05/02 04:40:49;;;;;;;11.80;5.70;;;;;;;12.01;57.58;99970.03;4925651;29;20394;-90
2023/05/02 04:43:15;;;;;;;9.02;4.43;;;;;;;12.01;57.93;99951.94;4926685;29;20031;-90
2023/05/02 04:45:40;;;;;;;13.07;4.03;;;;;;;12.20;56.37;99970.38;4926063;29;20046;-90
2023/05/02 04:48:06;;;;;;;6.85;3.95;;;;;;;12.06;55.99;99951.97;4921279;29;20413;-89
2023/05/02 04:50:31;;;;;;;8.02;3.45;;;;;;;11.95;55.23;99926.00;4924543;29;20501;-88
2023/05/02 04:52:57;;;;;;;6.05;3.95;;;;;;;12.18;54.93;99938.25;4929531;29;20036;-88
2023/05/02 04:55:22;;;;;;;7.47;4.18;;;;;;;12.34;56.45;99952.59;4917146;29;20031;-87
2023/05/02 04:57:48;;;;;;;8.32;4.07;;;;;;;12.32;56.73;99939.34;4924251;29;20046;-88
2023/05/02 05:00:14;;;;;;;9.65;3.58;;;;;;;12.48;56.71;99952.91;4923926;29;20043;-88
2023/05/02 05:02:39;;;;;;;7.07;3.70;;;;;;;12.59;55.70;99945.63;4924251;29;20035;-93
2023/05/02 05:05:05;;;;;;;9.30;3.67;;;;;;;12.69;54.77;99943.75;4928723;29;20050;-94
2023/05/02 05:07:31;;;;;;;11.57;5.10;;;;;;;12.77;55.35;99928.91;4924557;29;20035;-95
2023/05/02 05:09:59;;;;;;;12.77;4.03;;;;;;;13.12;53.50;99951.63;4924373;29;20047;-93
2023/05/02 05:12:24;;;;;;;7.63;4.25;;;;;;;13.14;54.92;99936.75;4908975;29;20036;-94
2023/05/02 05:14:50;;;;;;;6.90;2.63;;;;;;;13.37;51.02;99947.31;5122911;23;20010;-96
2023/05/02 05:17:16;;;;;;;25.40;17.08;;;;;;;13.53;49.50;99955.13;4936225;29;20091;-96
2023/05/02 05:19:41;;;;;;;10.57;4.38;;;;;;;13.59;53.77;99950.50;4940071;29;20054;-96
2023/05/02 05:22:12;;;;;;;11.63;4.28;;;;;;;13.87;52.69;99948.28;4935409;29;20046;-95
2023/05/02 05:24:38;;;;;;;9.97;5.50;;;;;;;13.89;52.99;99941.50;4936395;29;20031;-96
2023/05/02 05:27:04;;;;;;;5.90;3.20;;;;;;;14.08;48.55;99940.88;4934492;29;20034;-93
2023/05/02 05:29:31;;;;;;;15.20;7.80;;;;;;;14.17;46.88;99941.09;4931126;29;20038;-95
2023/05/02 05:31:59;;;;;;;8.45;3.70;;;;;;;14.27;45.80;99932.94;4930564;29;20035;-95
2023/05/02 05:34:25;;;;;;;4.65;2.50;;;;;;;14.42;44.48;99942.88;4963337;29;20094;-95
2023/05/02 05:36:51;;;;;;;10.45;3.25;;;;;;;14.52;45.32;99934.69;4930989;29;20039;-95
2023/05/02 05:39:17;;;;;;;19.58;12.02;;;;;;;14.77;44.66;99950.00;4933289;28;20035;-94
2023/05/02 05:41:43;;;;;;;5.32;3.17;;;;;;;14.84;42.92;99964.06;4956293;28;20083;-94
2023/05/02 05:44:09;;;;;;;6.60;2.25;;;;;;;14.84;41.93;99946.97;4940083;29;20034;-96
2023/05/02 05:46:34;;;;;;;5.00;2.50;;;;;;;14.97;42.20;99937.38;4933123;28;20035;-93
2023/05/02 05:49:03;;;;;;;5.05;2.72;;;;;;;15.20;42.79;99935.81;4936775;28;20079;-88
2023/05/02 05:51:28;;;;;;;6.65;2.40;;;;;;;15.29;41.34;99943.06;4934789;28;20038;-87
2023/05/02 05:53:57;;;;;;;8.45;2.38;;;;;;;15.61;40.94;99966.09;4931851;28;20101;-89
2023/05/02 05:56:22;;;;;;;6.45;2.67;;;;;;;15.69;41.70;99960.03;4925532;28;20494;-88
2023/05/02 05:58:48;;;;;;;3.65;2.00;;;;;;;15.70;40.22;99948.06;4933604;29;20041;-90
2023/05/02 06:01:14;;;;;;;4.10;2.72;;;;;;;16.00;40.04;99969.75;4922534;28;20035;-91
2023/05/02 06:03:39;;;;;;;4.72;2.30;;;;;;;16.03;39.04;99956.41;4936909;29;20038;-91
2023/05/02 06:06:10;;;;;;;5.13;2.38;;;;;;;16.14;39.62;99947.06;4937092;29;20035;-93
2023/05/02 06:08:36;;;;;;;6.32;2.63;;;;;;;16.29;37.71;99948.75;4933370;28;20039;-90
2023/05/02 06:11:09;;;;;;;3.95;1.70;;;;;;;16.60;36.73;99972.81;4929493;29;20114;-91
2023/05/02 06:13:38;;;;;;;1.80;1.50;;;;;;;16.47;35.30;99946.34;4932778;29;20109;-89
2023/05/02 06:16:04;;;;;;;3.58;1.80;;;;;;;16.58;34.53;99947.81;4930598;28;20154;-90
2023/05/02 06:18:30;;;;;;;2.75;1.70;;;;;;;16.85;34.98;99970.81;4931871;29;20035;-96
2023/05/02 06:20:55;;;;;;;7.05;2.67;;;;;;;16.84;34.48;99948.25;4949969;28;20480;-95
2023/05/02 06:23:21;;;;;;;2.40;1.60;;;;;;;16.93;33.91;99941.06;4954265;28;20062;-96
2023/05/02 06:25:57;;;;;;;4.78;1.73;;;;;;;17.16;33.35;99954.81;4936694;29;20129;-95
2023/05/02 06:31:50;;;;;;;3.80;1.88;;;;;;;17.44;32.23;99968.50;4907362;29;20043;-95
2023/05/02 06:34:15;;;;;;;2.33;1.63;;;;;;;17.44;31.95;99954.91;4886994;29;20611;-96
2023/05/02 06:36:41;;;;;;;4.68;1.65;;;;;;;17.57;32.10;99957.63;4901748;29;20037;-96
2023/05/02 06:39:09;;;;;;;2.95;1.55;;;;;;;17.58;32.09;99944.84;4888152;29;20039;-94
2023/05/02 06:41:35;;;;;;;5.78;2.40;;;;;;;17.54;31.79;99941.91;4906201;29;20045;-96
2023/05/02 06:44:01;;;;;;;9.10;2.00;;;;;;;17.70;32.06;99969.66;4887912;29;20093;-95
2023/05/02 06:46:32;;;;;;;2.45;1.73;;;;;;;17.78;31.70;99970.84;4883536;29;20100;-94
2023/05/02 06:48:59;;;;;;;4.93;1.93;;;;;;;17.78;31.58;99959.97;4900177;29;20055;-95
2023/05/02 06:51:25;;;;;;;6.85;2.05;;;;;;;17.95;32.21;99959.38;4884903;29;20339;-95
2023/05/02 06:54:00;;;;;;;2.90;1.63;;;;;;;18.03;30.52;99961.41;4889796;29;20037;-95
2023/05/02 06:56:25;;;;;;;4.97;2.22;;;;;;;18.05;30.09;99966.56;4890991;29;20037;-95
2023/05/02 06:58:55;;;;;;;9.15;1.70;;;;;;;17.88;30.26;99954.34;4882074;29;20112;-96
2023/05/02 07:01:21;;;;;;;3.42;1.70;;;;;;;17.91;29.90;99956.47;4917389;29;20031;-95
2023/05/02 07:03:46;;;;;;;3.80;2.63;;;;;;;18.04;30.38;99945.88;4927847;29;20046;-96
2023/05/02 07:06:13;;;;;;;8.50;1.98;;;;;;;18.12;29.88;99950.63;4931820;29;20046;-95
2023/05/02 07:08:38;;;;;;;3.88;1.55;;;;;;;18.17;29.84;99950.50;4931095;29;20095;-95
2023/05/02 07:11:04;;;;;;;9.95;1.85;;;;;;;18.22;29.60;99941.41;4933471;29;20047;-96
2023/05/02 07:13:29;;;;;;;3.25;2.05;;;;;;;18.33;29.45;99949.06;4935544;29;20042;-94
2023/05/02 07:15:55;;;;;;;4.82;2.15;;;;;;;18.64;28.88;99964.75;4943587;28;20081;-96
2023/05/02 07:18:24;;;;;;;4.43;2.10;;;;;;;18.58;28.54;99939.50;4953865;28;20046;-94
2023/05/02 07:20:54;;;;;;;5.50;2.50;;;;;;;18.53;28.65;99950.53;4957649;28;20049;-96
2023/05/02 07:23:22;;;;;;;29.77;17.83;;;;;;;18.70;28.40;99952.59;4977430;28;20504;-96
2023/05/02 07:25:51;;;;;;;4.63;1.90;;;;;;;18.83;29.52;99947.44;4959433;28;20118;-93
2023/05/02 07:28:17;;;;;;;4.28;2.00;;;;;;;19.12;29.17;99952.47;4958449;28;20034;-94
2023/05/02 07:33:48;;;;;;;3.65;1.60;;;;;;;19.18;26.42;99918.47;4921016;29;20057;-96
2023/05/02 07:36:14;;;;;;;4.22;2.20;;;;;;;19.45;27.46;99965.84;4923848;28;20043;-95
2023/05/02 07:38:39;;;;;;;5.18;3.45;;;;;;;19.54;28.29;99959.28;4956273;28;20046;-92
2023/05/02 07:41:05;;;;;;;3.65;2.00;;;;;;;19.55;27.30;99952.72;4990224;28;20065;-93
2023/05/02 07:43:33;;;;;;;4.28;2.38;;;;;;;19.49;27.11;99934.03;4966847;28;20030;-92
2023/05/02 07:46:03;;;;;;;2.88;1.70;;;;;;;19.45;27.09;99928.41;4964133;28;20042;-96
2023/05/02 07:48:31;;;;;;;3.35;1.80;;;;;;;19.72;26.90;99954.72;4956937;28;20042;-95
2023/05/02 07:51:05;;;;;;;5.50;2.88;;;;;;;19.51;27.07;99937.25;4958528;28;20038;-95
2023/05/02 07:53:30;;;;;;;4.72;2.00;;;;;;;19.80;27.07;99944.97;4955621;28;20503;-95
2023/05/02 07:56:05;;;;;;;5.97;3.38;;;;;;;19.85;26.81;99944.81;4959313;28;20038;-96
2023/05/02 07:58:39;;;;;;;2.90;1.50;;;;;;;19.87;24.70;99928.09;4919355;29;20026;-96
2023/05/02 08:01:05;;;;;;;2.47;1.40;;;;;;;19.96;25.29;99915.25;4897917;29;20076;-96
2023/05/02 08:03:30;;;;;;;5.65;2.53;;;;;;;20.25;25.54;99952.94;4888924;29;20044;-94
2023/05/02 08:06:00;;;;;;;9.25;6.03;;;;;;;20.34;24.78;99947.50;4888946;29;20095;-94
2023/05/02 08:08:27;;;;;;;2.65;1.35;;;;;;;20.23;23.76;99927.84;4884793;29;20048;-93
2023/05/02 08:11:19;;;;;;;3.95;2.10;;;;;;;20.32;25.72;99928.69;4880097;29;20131;-96
2023/05/02 08:13:45;;;;;;;7.50;2.88;;;;;;;20.43;25.01;99926.44;4914598;29;20036;-95
2023/05/02 08:16:11;;;;;;;4.57;2.05;;;;;;;20.45;23.65;99913.25;4877333;29;20574;-94
2023/05/02 08:18:37;;;;;;;9.43;3.05;;;;;;;20.46;25.52;99936.75;4883931;29;20130;-95
2023/05/02 08:21:04;;;;;;;10.05;2.78;;;;;;;20.56;24.90;99950.09;4883331;29;20392;-94
2023/05/02 08:23:30;;;;;;;4.00;1.33;;;;;;;20.51;23.39;99925.63;4880126;29;20048;-94
2023/05/02 08:25:55;;;;;;;4.38;1.67;;;;;;;20.51;23.07;99933.03;4864528;29;20040;-96
2023/05/02 08:28:21;;;;;;;3.75;1.73;;;;;;;20.41;23.27;99925.16;4880025;29;20044;-95
2023/05/02 08:31:08;;;;;;;3.15;1.98;;;;;;;20.64;24.36;99925.84;4881598;29;20112;-95
2023/05/02 08:33:37;;;;;;;4.20;1.40;;;;;;;20.75;23.34;99944.34;4910558;29;20048;-95
2023/05/02 08:36:13;;;;;;;3.55;1.83;;;;;;;20.76;23.51;99956.09;4903897;29;20040;-94
2023/05/02 08:38:39;;;;;;;5.40;2.30;;;;;;;20.84;24.35;99947.06;4900166;29;20071;-93
2023/05/02 08:41:13;;;;;;;3.75;2.10;;;;;;;20.83;24.69;99937.25;4878145;29;20075;-96
2023/05/02 08:44:02;;;;;;;6.50;2.35;;;;;;;20.98;22.39;99922.28;4935901;28;20034;-92
2023/05/02 08:46:36;;;;;;;8.55;5.55;;;;;;;20.90;21.87;99937.56;4967342;28;20125;-96
2023/05/02 08:49:02;;;;;;;2.05;1.30;;;;;;;20.81;21.10;99941.44;4950905;28;20038;-93
2023/05/02 08:51:39;;;;;;;4.30;1.65;;;;;;;20.74;21.61;99929.03;4943573;28;20098;-95
2023/05/02 08:54:06;;;;;;;2.67;1.50;;;;;;;20.78;21.72;99919.06;4963985;28;20034;-91
2023/05/02 08:56:31;;;;;;;4.55;2.20;;;;;;;20.93;22.84;99947.84;4959561;28;20066;-92
2023/05/02 08:59:21;;;;;;;4.10;2.30;;;;;;;20.98;22.73;99941.44;4955689;28;20070;-92
2023/05/02 09:02:43;;;;;;;14.82;7.00;;;;;;;20.93;21.92;99933.38;4955014;28;20035;-96
2023/05/02 09:05:11;;;;;;;2.90;1.60;;;;;;;20.93;23.21;99917.75;4946662;29;20043;-94
2023/05/02 09:07:47;;;;;;;5.15;1.60;;;;;;;20.96;22.57;99919.06;4953700;29;20078;-95
2023/05/02 09:17:05;;;;;;;2.88;1.50;;;;;;;21.09;21.77;99937.22;4974750;28;20139;-96
2023/05/02 09:19:31;;;;;;;4.60;2.45;;;;;;;21.05;23.08;99913.56;4956959;29;20115;-95
2023/05/02 09:22:00;;;;;;;5.60;1.48;;;;;;;21.11;22.37;99907.56;4940945;29;20046;-94
2023/05/02 09:24:26;;;;;;;3.65;1.73;;;;;;;21.24;23.26;99911.25;4941554;29;20107;-95
2023/05/02 09:27:02;;;;;;;5.75;1.60;;;;;;;21.20;22.08;99902.06;4935024;29;20178;-96
2023/05/02 09:29:34;;;;;;;3.05;1.50;;;;;;;21.23;21.43;99906.09;4947296;28;20039;-96
2023/05/02 09:32:11;;;;;;;2.90;1.42;;;;;;;20.96;20.79;99897.16;4957612;28;20043;-95
2023/05/02 09:34:39;;;;;;;2.17;1.50;;;;;;;20.71;21.60;99915.19;4966387;28;20050;-95
2023/05/02 09:37:05;;;;;;;3.35;1.38;;;;;;;20.93;22.13;99898.59;4952971;28;20050;-93
2023/05/02 09:39:33;;;;;;;2.25;1.50;;;;;;;21.10;21.54;99922.38;4936999;28;20123;-93
2023/05/02 09:42:02;;;;;;;2.38;1.70;;;;;;;21.07;21.80;99909.34;4952560;28;20484;-94
2023/05/02 09:44:39;;;;;;;4.18;1.90;;;;;;;21.15;22.19;99916.75;4938230;28;20042;-94
2023/05/02 09:47:08;;;;;;;5.82;1.55;;;;;;;21.01;22.04;99885.22;4946695;28;20046;-96
2023/05/02 09:49:45;;;;;;;3.42;1.63;;;;;;;21.28;22.64;99903.19;4973155;28;20045;-94
2023/05/02 09:52:23;;;;;;;5.55;1.70;;;;;;;21.22;20.92;99899.81;4959597;28;20034;-96
2023/05/02 09:54:52;;;;;;;3.53;1.70;;;;;;;20.98;20.80;99883.94;4961284;28;20035;-95
2023/05/02 09:57:48;;;;;;;3.97;1.80;;;;;;;21.21;22.67;99911.91;4958973;28;20046;-94
2023/05/02 10:00:18;;;;;;;2.28;1.50;;;;;;;21.23;22.80;99881.44;4956557;28;20125;-90
2023/05/02 10:02:49;;;;;;;2.85;1.60;;;;;;;21.44;22.71;99882.38;4948999;28;20059;-90
2023/05/02 10:05:16;;;;;;;4.47;1.33;;;;;;;21.53;22.03;99871.38;4951834;28;20382;-90
2023/05/02 10:07:42;;;;;;;3.55;1.58;;;;;;;21.56;22.40;99871.53;4951491;28;20030;-88
2023/05/02 10:10:13;;;;;;;3.65;2.00;;;;;;;21.82;22.65;99900.72;4951674;28;20067;-88
2023/05/02 10:12:38;;;;;;;5.30;2.10;;;;;;;21.72;22.68;99895.59;4949907;28;20105;-88
2023/05/02 10:15:04;;;;;;;2.33;1.50;;;;;;;21.59;21.93;99883.75;4948115;28;20037;-89
2023/05/02 10:17:31;;;;;;;5.50;2.13;;;;;;;21.52;22.65;99870.56;4934549;28;20137;-87
2023/05/02 10:20:05;;;;;;;4.13;1.85;;;;;;;21.56;23.16;99876.16;4961169;28;20121;-87
2023/05/02 10:22:40;;;;;;;3.42;1.45;;;;;;;21.61;23.17;99881.47;4958250;28;20039;-85
2023/05/02 10:25:08;;;;;;;4.85;1.33;;;;;;;21.59;22.83;99868.09;4974816;28;20039;-87
2023/05/02 10:27:37;;;;;;;5.72;1.92;;;;;;;21.68;22.92;99861.78;4956225;28;20090;-87
2023/05/02 10:30:12;;;;;;;5.45;1.98;;;;;;;21.80;23.31;99873.63;4948935;28;20045;-88
2023/05/02 10:32:37;;;;;;;3.42;1.48;;;;;;;21.73;22.58;99859.66;4959225;28;20041;-89
2023/05/02 10:35:04;;;;;;;4.43;1.67;;;;;;;21.98;23.01;99866.09;4948622;28;20079;-90
2023/05/02 10:37:39;;;;;;;5.90;2.70;;;;;;;22.11;22.47;99861.50;4952342;28;20050;-90
2023/05/02 10:40:19;;;;;;;4.20;1.90;;;;;;;22.15;21.91;99845.97;4954345;28;20030;-88
2023/05/02 10:42:50;;;;;;;2.33;1.23;;;;;;;22.22;19.68;99863.84;4953889;28;20160;-91
2023/05/02 10:45:31;;;;;;;4.88;1.70;;;;;;;22.22;22.08;99867.38;4946518;28;20034;-91
2023/05/02 10:48:31;;;;;;;;;;;;;;;;;;;;;
2023/05/02 10:51:00;;;;;;;2.55;1.33;;;;;;;22.16;19.97;99861.31;4990522;28;20066;-95
2023/05/02 10:53:32;;;;;;;2.60;1.42;;;;;;;22.05;20.72;99826.38;4970376;28;20034;-94
2023/05/02 10:56:14;;;;;;;2.42;1.70;;;;;;;22.35;21.16;99871.84;4955255;28;20031;-94
2023/05/02 10:58:42;;;;;;;1.88;1.00;;;;;;;22.25;19.31;99835.78;4969366;28;20126;-94
2023/05/02 11:01:31;;;;;;;2.45;1.30;;;;;;;22.28;20.00;99862.53;4942152;29;20039;-96
2023/05/02 11:04:04;;;;;;;2.92;1.20;;;;;;;22.14;20.82;99832.59;4948509;29;20634;-95
2023/05/02 11:06:34;;;;;;;2.10;1.38;;;;;;;22.40;20.76;99857.91;4940798;29;20039;-94
2023/05/02 11:09:14;;;;;;;3.95;1.30;;;;;;;22.55;19.79;99863.91;4943345;28;20042;-92
2023/05/02 11:11:56;;;;;;;4.80;1.20;;;;;;;22.50;19.97;99858.66;4969020;28;20139;-94
2023/05/02 11:14:38;;;;;;;9.68;2.22;;;;;;;22.58;21.01;99864.06;4944121;28;20117;-91
2023/05/02 11:17:11;;;;;;;10.20;3.22;;;;;;;22.50;20.21;99851.22;4969590;28;20055;-92
2023/05/02 11:19:36;;;;;;;74.95;8.32;;;;;;;22.63;21.45;99857.53;4950605;29;20123;-93
2023/05/02 11:22:20;;;;;;;1.95;1.20;;;;;;;22.58;20.19;99863.25;4951070;29;20038;-96
2023/05/02 11:24:52;;;;;;;11.75;4.90;;;;;;;22.73;19.18;99853.59;4962460;28;20051;-95
2023/05/02 11:27:45;;;;;;;3.75;1.30;;;;;;;22.55;19.81;99859.22;4922076;29;20503;-94
2023/05/02 11:30:11;;;;;;;2.40;1.30;;;;;;;22.58;20.36;99841.31;4953960;29;20042;-96
2023/05/02 11:33:26;;;;;;;4.97;1.48;;;;;;;22.83;20.43;99857.81;4906828;29;20463;-92
2023/05/02 11:36:29;;;;;;;2.80;1.30;;;;;;;22.87;19.98;99845.03;4873720;29;20051;-95
2023/05/02 11:39:08;;;;;;;;;;;;;;;;;;;;;
2023/05/02 11:41:38;;;;;;;6.63;1.10;;;;;;;22.91;20.22;99818.50;4877732;29;20057;-95
2023/05/02 11:44:35;;;;;;;2.90;1.60;;;;;;;23.09;20.75;99832.88;4862280;29;20050;-96
2023/05/02 11:47:03;;;;;;;4.15;1.52;;;;;;;23.00;20.06;99822.75;4877507;29;20032;-95
2023/05/02 11:49:30;;;;;;;3.28;1.42;;;;;;;22.90;19.41;99831.44;4877249;29;20085;-96
2023/05/02 11:52:03;;;;;;;4.28;1.50;;;;;;;22.88;19.74;99843.91;4876130;29;20065;-96
2023/05/02 11:54:29;;;;;;;5.88;1.30;;;;;;;22.90;18.92;99831.44;4874119;29;20037;-95
2023/05/02 11:57:10;;;;;;;4.53;1.15;;;;;;;22.74;18.93;99806.59;4863378;29;20037;-95
2023/05/02 11:59:56;;;;;;;6.13;2.00;;;;;;;23.06;19.72;99819.81;4858219;29;20147;-95
2023/05/02 12:03:38;;;;;;;;;;;;;;;;;;;;;
2023/05/02 12:06:25;;;;;;;4.07;1.25;;;;;;;22.75;19.64;99788.16;4873037;29;20084;-95